createdAt,value
2023-04-26T00:00:49.852Z,78.82
2023-04-26T00:03:16.655Z,78.87
2023-04-26T00:05:43.536Z,78.33
2023-04-26T00:08:10.411Z,79.35
2023-04-26T00:10:37.176Z,79.12
2023-04-26T00:13:03.973Z,79.02
2023-04-26T00:15:30.629Z,79.58
2023-04-26T00:17:57.409Z,79.41
2023-04-26T00:20:24.174Z,79.48
2023-04-26T00:22:50.802Z,79.21
2023-04-26T00:25:17.542Z,80.19
2023-04-26T00:27:44.190Z,79.77
2023-04-26T00:30:11.311Z,80.42
2023-04-26T00:32:38.003Z,80.43
2023-04-26T00:35:06.642Z,80.14
2023-04-26T00:37:33.263Z,80.84
2023-04-26T00:39:59.934Z,80.69
2023-04-26T00:42:27.477Z,80.28
2023-04-26T00:44:57.549Z,81.47
2023-04-26T00:47:26.030Z,80.93
2023-04-26T00:49:54.333Z,81.22
2023-04-26T00:52:21.982Z,81.26
2023-04-26T00:54:52.083Z,81.84
2023-04-26T00:57:18.720Z,81.56
2023-04-26T00:59:45.444Z,81.79
2023-04-26T01:02:12.241Z,81.86
2023-04-26T01:04:40.261Z,82.81
2023-04-26T01:07:06.966Z,82.88
2023-04-26T01:09:33.818Z,82.48
2023-04-26T01:12:01.289Z,82.55
2023-04-26T01:14:28.776Z,82.61
2023-04-26T01:16:57.559Z,82.73
2023-04-26T01:19:25.795Z,82.96
2023-04-26T01:21:52.495Z,83.59
2023-04-26T01:24:19.165Z,83.41
2023-04-26T01:26:46.684Z,83.21
2023-04-26T01:29:20.739Z,83.76
2023-04-26T01:31:48.291Z,83.83
2023-04-26T01:34:15.308Z,83.82
2023-04-26T01:36:42.548Z,83.32
2023-04-26T01:39:09.678Z,83.70
2023-04-26T01:41:36.748Z,83.53
2023-04-26T01:44:03.589Z,83.46
2023-04-26T01:46:30.243Z,83.65
2023-04-26T01:48:57.404Z,83.25
2023-04-26T01:51:24.080Z,83.57
2023-04-26T01:53:50.934Z,83.46
2023-04-26T01:56:18.368Z,83.53
2023-04-26T01:58:45.144Z,83.90
2023-04-26T02:01:12.196Z,83.89
2023-04-26T02:03:39.008Z,83.77
2023-04-26T02:06:06.094Z,83.50
2023-04-26T02:08:32.900Z,83.85
2023-04-26T02:10:59.612Z,83.55
2023-04-26T02:13:28.104Z,83.98
2023-04-26T02:15:54.946Z,83.62
2023-04-26T02:18:22.196Z,83.26
2023-04-26T02:20:49.205Z,83.92
2023-04-26T02:23:15.962Z,83.96
2023-04-26T02:25:45.864Z,84.06
2023-04-26T02:28:12.322Z,84.18
2023-04-26T02:30:39.109Z,84.12
2023-04-26T02:33:05.985Z,84.42
2023-04-26T02:35:32.693Z,84.19
2023-04-26T02:37:59.348Z,83.90
2023-04-26T02:40:25.994Z,84.36
2023-04-26T02:42:52.583Z,84.62
2023-04-26T02:45:19.384Z,84.40
2023-04-26T02:47:46.016Z,84.04
2023-04-26T02:50:12.649Z,84.00
2023-04-26T02:52:39.330Z,84.18
2023-04-26T02:55:06.803Z,83.98
2023-04-26T02:57:36.639Z,84.15
2023-04-26T03:00:06.405Z,83.82
2023-04-26T03:02:33.521Z,83.41
2023-04-26T03:05:00.453Z,83.55
2023-04-26T03:07:27.107Z,83.45
2023-04-26T03:09:53.680Z,83.40
2023-04-26T03:12:20.351Z,83.92
2023-04-26T03:14:47.070Z,83.15
2023-04-26T03:17:13.769Z,83.05
2023-04-26T03:19:40.516Z,83.87
2023-04-26T03:22:07.439Z,82.96
2023-04-26T03:24:34.058Z,83.26
2023-04-26T03:27:00.675Z,83.35
2023-04-26T03:29:27.369Z,83.57
2023-04-26T03:31:54.192Z,83.09
2023-04-26T03:34:20.880Z,82.61
2023-04-26T03:36:47.686Z,82.70
2023-04-26T03:39:14.356Z,82.94
2023-04-26T03:41:41.265Z,82.86
2023-04-26T03:44:08.054Z,83.22
2023-04-26T03:46:34.697Z,82.98
2023-04-26T03:49:04.518Z,82.33
2023-04-26T03:51:31.463Z,82.86
2023-04-26T03:53:59.052Z,82.24
2023-04-26T03:56:25.802Z,82.47
2023-04-26T03:58:52.580Z,82.02
2023-04-26T04:01:20.388Z,81.77
2023-04-26T04:03:47.315Z,81.89
2023-04-26T04:06:14.196Z,81.81
2023-04-26T04:08:40.994Z,81.52
2023-04-26T04:11:07.659Z,81.93
2023-04-26T04:13:34.309Z,80.93
2023-04-26T04:16:00.954Z,81.73
2023-04-26T04:18:27.723Z,80.40
2023-04-26T04:20:54.471Z,80.66
2023-04-26T04:23:21.574Z,80.04
2023-04-26T04:25:49.266Z,79.93
2023-04-26T04:28:16.098Z,80.26
2023-04-26T04:30:44.220Z,79.95
2023-04-26T04:33:10.877Z,79.05
2023-04-26T04:35:37.685Z,79.17
2023-04-26T04:38:04.408Z,78.14
2023-04-26T04:40:31.444Z,77.62
2023-04-26T04:42:58.211Z,77.15
2023-04-26T04:45:24.844Z,76.81
2023-04-26T04:47:54.388Z,77.32
2023-04-26T04:50:21.840Z,76.86
2023-04-26T04:52:48.492Z,76.85
2023-04-26T04:55:15.139Z,75.70
2023-04-26T04:57:44.638Z,76.10
2023-04-26T05:00:15.830Z,75.88
2023-04-26T05:02:43.135Z,75.32
2023-04-26T05:05:11.242Z,75.17
2023-04-26T05:07:38.100Z,74.44
2023-04-26T05:10:05.128Z,75.47
2023-04-26T05:12:31.889Z,74.56
2023-04-26T05:14:58.470Z,73.58
2023-04-26T05:17:25.261Z,73.44
2023-04-26T05:19:53.032Z,72.83
2023-04-26T05:22:21.254Z,72.73
2023-04-26T05:24:48.671Z,72.03
2023-04-26T05:27:15.536Z,71.51
2023-04-26T05:29:43.122Z,72.25
2023-04-26T05:32:09.831Z,71.64
2023-04-26T05:34:37.472Z,71.05
2023-04-26T05:37:04.191Z,71.40
2023-04-26T05:39:31.936Z,72.07
2023-04-26T05:41:58.623Z,70.68
2023-04-26T05:44:25.452Z,70.10
2023-04-26T05:46:52.086Z,70.30
2023-04-26T05:49:18.784Z,70.13
2023-04-26T05:51:45.395Z,70.59
2023-04-26T05:54:12.140Z,70.67
2023-04-26T05:56:38.799Z,69.95
2023-04-26T05:59:06.553Z,69.75
2023-04-26T06:01:33.233Z,69.07
2023-04-26T06:04:01.189Z,68.21
2023-04-26T06:06:28.704Z,69.05
2023-04-26T06:08:55.725Z,67.07
2023-04-26T06:11:22.549Z,67.96
2023-04-26T06:13:49.327Z,68.82
2023-04-26T06:16:16.671Z,66.90
2023-04-26T06:18:43.851Z,66.90
2023-04-26T06:21:10.748Z,66.95
2023-04-26T06:23:37.392Z,68.94
2023-04-26T06:26:04.155Z,68.21
2023-04-26T06:28:31.168Z,67.66
2023-04-26T06:30:57.937Z,67.02
2023-04-26T06:33:24.619Z,67.82
2023-04-26T06:35:52.459Z,66.70
2023-04-26T06:38:19.054Z,66.72
2023-04-26T06:40:45.669Z,66.77
2023-04-26T06:43:12.951Z,64.78
2023-04-26T06:45:40.954Z,64.10
2023-04-26T06:48:08.524Z,63.67
2023-04-26T06:50:39.344Z,63.04
2023-04-26T06:53:06.239Z,61.55
2023-04-26T06:55:33.758Z,61.43
2023-04-26T06:58:00.542Z,59.48
2023-04-26T07:00:28.420Z,53.91
2023-04-26T07:02:55.206Z,51.61
2023-04-26T07:05:25.935Z,51.52
2023-04-26T07:07:52.672Z,50.89
2023-04-26T07:10:21.082Z,50.70
2023-04-26T07:12:48.560Z,50.95
2023-04-26T07:15:15.662Z,53.78
2023-04-26T07:17:42.236Z,55.71
2023-04-26T07:20:10.474Z,55.85
2023-04-26T07:22:37.148Z,56.19
2023-04-26T07:25:05.064Z,52.09
2023-04-26T07:27:32.079Z,52.77
2023-04-26T07:29:58.888Z,52.70
2023-04-26T07:32:25.629Z,51.38
2023-04-26T07:34:52.392Z,49.71
2023-04-26T07:37:19.131Z,50.63
2023-04-26T07:39:45.722Z,50.93
2023-04-26T07:42:12.424Z,49.06
2023-04-26T07:44:41.893Z,48.12
2023-04-26T07:47:14.621Z,48.87
2023-04-26T07:49:41.482Z,47.86
2023-04-26T07:52:11.118Z,48.81
2023-04-26T07:54:38.360Z,48.06
2023-04-26T07:57:04.948Z,47.52
2023-04-26T07:59:31.955Z,48.05
2023-04-26T08:01:58.563Z,46.33
2023-04-26T08:04:35.415Z,46.36
2023-04-26T08:07:02.838Z,46.30
2023-04-26T08:09:30.928Z,45.12
2023-04-26T08:11:58.023Z,44.78
2023-04-26T08:14:25.328Z,42.22
2023-04-26T08:16:52.100Z,42.09
2023-04-26T08:19:18.887Z,40.12
2023-04-26T08:21:45.507Z,40.58
2023-04-26T08:24:12.118Z,41.60
2023-04-26T08:26:38.833Z,40.98
2023-04-26T08:29:06.116Z,37.98
2023-04-26T08:31:32.765Z,38.89
2023-04-26T08:33:59.404Z,40.22
2023-04-26T08:36:26.955Z,38.41
2023-04-26T08:38:53.598Z,34.46
2023-04-26T08:41:24.707Z,33.73
2023-04-26T08:43:52.142Z,35.72
2023-04-26T08:46:21.040Z,33.93
2023-04-26T08:49:07.034Z,34.60
2023-04-26T08:51:34.772Z,37.06
2023-04-26T08:54:04.137Z,37.19
2023-04-26T08:56:32.980Z,36.00
2023-04-26T08:59:01.301Z,36.22
2023-04-26T09:01:30.009Z,35.06
2023-04-26T09:03:58.439Z,35.07
2023-04-26T09:06:27.463Z,35.08
2023-04-26T09:08:56.085Z,35.60
2023-04-26T09:11:22.950Z,31.65
2023-04-26T09:13:49.661Z,31.63
2023-04-26T09:16:17.093Z,32.21
2023-04-26T09:18:54.918Z,32.39
2023-04-26T09:21:21.734Z,33.25
2023-04-26T09:24:04.880Z,34.48
2023-04-26T09:26:32.481Z,35.25
2023-04-26T09:29:19.014Z,35.19
2023-04-26T09:31:49.808Z,36.62
2023-04-26T09:34:16.887Z,35.04
2023-04-26T09:36:51.331Z,36.36
2023-04-26T09:39:38.684Z,37.07
2023-04-26T09:42:06.136Z,36.04
2023-04-26T09:44:33.152Z,38.27
2023-04-26T09:47:02.593Z,38.59
2023-04-26T09:49:44.778Z,37.32
2023-04-26T09:52:11.423Z,36.82
2023-04-26T09:54:41.497Z,37.74
2023-04-26T09:57:08.131Z,38.99
2023-04-26T09:59:47.512Z,38.76
2023-04-26T10:02:35.293Z,38.76
2023-04-26T10:05:03.093Z,37.66
2023-04-26T10:07:30.867Z,38.78
2023-04-26T10:09:58.423Z,38.82
2023-04-26T10:12:25.025Z,39.03
2023-04-26T10:14:53.286Z,37.61
2023-04-26T10:17:21.122Z,37.88
2023-04-26T10:19:51.684Z,38.49
2023-04-26T10:22:23.854Z,37.16
2023-04-26T10:24:52.701Z,37.47
2023-04-26T10:27:45.278Z,36.28
2023-04-26T10:30:14.074Z,37.61
2023-04-26T10:32:56.122Z,38.00
2023-04-26T10:35:27.280Z,37.52
2023-04-26T10:37:59.720Z,37.85
2023-04-26T10:40:28.375Z,35.99
2023-04-26T10:43:10.278Z,35.96
2023-04-26T10:45:37.729Z,36.43
2023-04-26T10:48:20.247Z,36.73
2023-04-26T10:51:13.212Z,36.48
2023-04-26T10:53:46.356Z,35.53
2023-04-26T10:56:33.698Z,34.79
2023-04-26T10:59:33.254Z,36.01
2023-04-26T11:02:00.978Z,36.26
2023-04-26T11:04:53.399Z,35.38
2023-04-26T11:07:39.055Z,35.74
2023-04-26T11:10:22.882Z,34.11
2023-04-26T11:13:01.028Z,34.62
2023-04-26T11:15:27.901Z,34.34
2023-04-26T11:17:54.564Z,34.04
2023-04-26T11:20:21.258Z,35.26
2023-04-26T11:22:47.913Z,35.05
2023-04-26T11:25:14.638Z,34.33
2023-04-26T11:27:43.498Z,34.20
2023-04-26T11:30:10.943Z,34.01
2023-04-26T11:32:37.733Z,32.55
2023-04-26T11:35:05.054Z,32.78
2023-04-26T11:37:33.764Z,33.11
2023-04-26T11:40:00.496Z,32.79
2023-04-26T11:42:27.242Z,32.95
2023-04-26T11:44:54.682Z,33.29
2023-04-26T11:47:22.856Z,32.25
2023-04-26T11:49:49.689Z,33.95
2023-04-26T11:52:17.031Z,33.20
2023-04-26T11:54:44.485Z,32.14
2023-04-26T11:57:17.321Z,31.53
2023-04-26T11:59:46.019Z,32.89
2023-04-26T12:02:12.878Z,31.40
2023-04-26T12:04:41.407Z,30.77
2023-04-26T12:07:19.309Z,32.41
2023-04-26T12:09:46.186Z,32.54
2023-04-26T12:12:12.793Z,31.52
2023-04-26T12:14:40.634Z,32.55
2023-04-26T12:17:08.168Z,31.57
2023-04-26T12:19:39.728Z,31.40
2023-04-26T12:22:08.359Z,31.18
2023-04-26T12:24:37.007Z,30.42
2023-04-26T12:27:06.936Z,31.18
2023-04-26T12:29:35.121Z,31.96
2023-04-26T12:32:02.738Z,31.53
2023-04-26T12:34:29.825Z,31.06
2023-04-26T12:36:56.649Z,32.33
2023-04-26T12:39:23.397Z,31.17
2023-04-26T12:41:50.041Z,31.01
2023-04-26T12:44:17.288Z,30.15
2023-04-26T12:46:45.988Z,29.38
2023-04-26T12:49:12.786Z,29.68
2023-04-26T12:51:39.558Z,30.63
2023-04-26T12:54:06.205Z,29.02
2023-04-26T12:56:35.142Z,29.35
2023-04-26T12:59:01.901Z,29.96
2023-04-26T13:01:28.545Z,30.06
2023-04-26T13:03:57.242Z,30.39
2023-04-26T13:06:24.479Z,31.33
2023-04-26T13:08:51.221Z,31.98
2023-04-26T13:11:18.125Z,30.72
2023-04-26T13:13:45.291Z,30.01
2023-04-26T13:16:13.205Z,29.26
2023-04-26T13:18:40.701Z,29.69
2023-04-26T13:21:07.790Z,27.95
2023-04-26T13:23:34.486Z,29.16
2023-04-26T13:26:01.175Z,29.16
2023-04-26T13:28:27.859Z,30.36
2023-04-26T13:30:55.913Z,30.43
2023-04-26T13:33:22.832Z,28.96
2023-04-26T13:35:49.499Z,29.23
2023-04-26T13:38:16.935Z,29.63
2023-04-26T13:40:44.366Z,28.66
2023-04-26T13:43:11.257Z,28.38
2023-04-26T13:45:39.694Z,29.32
2023-04-26T13:48:06.634Z,28.91
2023-04-26T13:50:33.332Z,30.42
2023-04-26T13:53:00.203Z,27.98
2023-04-26T13:55:27.192Z,28.41
2023-04-26T13:57:53.870Z,28.65
2023-04-26T14:00:20.984Z,30.26
2023-04-26T14:02:48.212Z,28.65
2023-04-26T14:05:17.743Z,28.91
2023-04-26T14:07:44.514Z,28.34
2023-04-26T14:10:12.559Z,29.94
2023-04-26T14:12:39.828Z,28.83
2023-04-26T14:15:08.405Z,28.27
2023-04-26T14:17:35.090Z,28.83
2023-04-26T14:20:01.938Z,27.77
2023-04-26T14:22:28.787Z,27.96
2023-04-26T14:24:55.467Z,28.48
2023-04-26T14:27:22.147Z,27.58
2023-04-26T14:29:48.775Z,29.11
2023-04-26T14:32:15.703Z,28.79
2023-04-26T14:34:43.001Z,29.04
2023-04-26T14:37:10.477Z,29.57
2023-04-26T14:39:37.523Z,28.48
2023-04-26T14:42:04.593Z,28.97
2023-04-26T14:44:32.772Z,27.86
2023-04-26T14:46:59.437Z,27.83
2023-04-26T14:49:26.186Z,27.76
2023-04-26T14:51:53.667Z,28.45
2023-04-26T14:54:21.123Z,28.79
2023-04-26T14:56:48.542Z,28.27
2023-04-26T14:59:15.295Z,27.87
2023-04-26T15:01:45.031Z,28.96
2023-04-26T15:04:11.914Z,28.71
2023-04-26T15:06:39.057Z,28.52
2023-04-26T15:09:09.153Z,28.81
2023-04-26T15:11:36.028Z,28.43
2023-04-26T15:14:02.659Z,29.50
2023-04-26T15:16:29.316Z,29.29
2023-04-26T15:18:56.096Z,28.50
2023-04-26T15:21:22.960Z,28.79
2023-04-26T15:23:52.730Z,28.96
2023-04-26T15:26:19.376Z,29.39
2023-04-26T15:28:46.527Z,29.30
2023-04-26T15:31:13.318Z,29.58
2023-04-26T15:33:39.983Z,29.43
2023-04-26T15:36:07.069Z,29.37
2023-04-26T15:38:35.264Z,29.17
2023-04-26T15:41:02.060Z,29.42
2023-04-26T15:43:28.851Z,30.16
2023-04-26T15:45:55.709Z,29.58
2023-04-26T15:48:24.845Z,30.81
2023-04-26T15:50:53.857Z,29.55
2023-04-26T15:53:21.851Z,29.91
2023-04-26T15:55:48.422Z,30.49
2023-04-26T15:58:15.114Z,30.76
2023-04-26T16:00:42.093Z,29.88
2023-04-26T16:03:08.937Z,29.13
2023-04-26T16:05:35.585Z,28.85
2023-04-26T16:08:03.353Z,29.64
2023-04-26T16:10:29.968Z,30.24
2023-04-26T16:12:57.514Z,29.77
2023-04-26T16:15:24.151Z,30.14
2023-04-26T16:17:50.803Z,31.02
2023-04-26T16:20:17.818Z,31.91
2023-04-26T16:22:45.351Z,30.76
2023-04-26T16:25:13.142Z,30.85
2023-04-26T16:27:39.795Z,30.90
2023-04-26T16:30:07.005Z,30.94
2023-04-26T16:32:34.236Z,31.37
2023-04-26T16:35:01.094Z,33.03
2023-04-26T16:37:27.883Z,32.49
2023-04-26T16:39:56.018Z,32.37
2023-04-26T16:42:22.880Z,32.58
2023-04-26T16:44:49.561Z,32.44
2023-04-26T16:47:16.253Z,33.53
2023-04-26T16:49:42.921Z,33.62
2023-04-26T16:52:09.726Z,34.65
2023-04-26T16:54:36.604Z,35.00
2023-04-26T16:57:04.487Z,35.16
2023-04-26T16:59:31.362Z,35.93
2023-04-26T17:01:58.083Z,35.31
2023-04-26T17:04:26.346Z,36.06
2023-04-26T17:06:53.823Z,35.08
2023-04-26T17:09:20.822Z,35.13
2023-04-26T17:11:47.490Z,35.37
2023-04-26T17:14:17.275Z,34.09
2023-04-26T17:16:44.198Z,34.16
2023-04-26T17:19:11.048Z,33.94
2023-04-26T17:21:37.825Z,34.52
2023-04-26T17:24:04.662Z,35.70
2023-04-26T17:26:32.760Z,34.27
2023-04-26T17:28:59.496Z,34.58
2023-04-26T17:31:26.397Z,35.47
2023-04-26T17:33:53.076Z,35.23
2023-04-26T17:36:20.024Z,36.36
2023-04-26T17:38:48.481Z,36.67
2023-04-26T17:41:18.257Z,36.34
2023-04-26T17:43:45.887Z,36.66
2023-04-26T17:46:12.621Z,36.98
2023-04-26T17:48:39.645Z,36.54
2023-04-26T17:51:06.906Z,37.53
2023-04-26T17:53:33.563Z,37.30
2023-04-26T17:56:00.205Z,37.64
2023-04-26T17:58:27.596Z,37.67
2023-04-26T18:00:54.293Z,38.41
2023-04-26T18:03:21.188Z,38.16
2023-04-26T18:05:48.323Z,38.60
2023-04-26T18:08:14.962Z,39.44
2023-04-26T18:10:41.690Z,39.46
2023-04-26T18:13:08.446Z,39.66
2023-04-26T18:15:35.082Z,40.77
2023-04-26T18:18:05.547Z,39.88
2023-04-26T18:20:32.504Z,39.27
2023-04-26T18:22:59.136Z,40.55
2023-04-26T18:25:25.758Z,39.76
2023-04-26T18:27:52.384Z,39.86
2023-04-26T18:30:19.374Z,39.68
2023-04-26T18:32:46.125Z,40.98
2023-04-26T18:35:12.909Z,41.80
2023-04-26T18:37:39.784Z,40.75
2023-04-26T18:40:07.291Z,41.83
2023-04-26T18:42:33.928Z,42.39
2023-04-26T18:45:02.079Z,42.29
2023-04-26T18:47:28.686Z,42.08
2023-04-26T18:49:55.826Z,42.24
2023-04-26T18:52:22.470Z,42.58
2023-04-26T18:54:49.297Z,42.93
2023-04-26T18:57:18.160Z,42.53
2023-04-26T18:59:44.746Z,43.60
2023-04-26T19:02:11.589Z,43.73
2023-04-26T19:04:38.494Z,44.45
2023-04-26T19:07:05.425Z,44.59
2023-04-26T19:09:39.859Z,45.10
2023-04-26T19:12:17.405Z,44.66
2023-04-26T19:14:44.012Z,44.80
2023-04-26T19:17:11.388Z,45.49
2023-04-26T19:19:38.513Z,45.45
2023-04-26T19:22:05.185Z,45.97
2023-04-26T19:24:31.932Z,45.76
2023-04-26T19:26:58.676Z,46.12
2023-04-26T19:29:25.558Z,45.99
2023-04-26T19:31:52.290Z,47.19
2023-04-26T19:34:18.986Z,46.00
2023-04-26T19:36:45.659Z,45.78
2023-04-26T19:39:12.401Z,46.32
2023-04-26T19:41:39.238Z,46.86
2023-04-26T19:44:08.683Z,45.59
2023-04-26T19:46:35.577Z,45.59
2023-04-26T19:49:02.210Z,45.99
2023-04-26T19:51:28.970Z,45.99
2023-04-26T19:53:55.639Z,46.31
2023-04-26T19:56:24.016Z,46.50
2023-04-26T19:58:50.670Z,46.65
2023-04-26T20:01:17.511Z,47.38
2023-04-26T20:03:46.123Z,48.12
2023-04-26T20:06:14.071Z,48.37
2023-04-26T20:08:41.454Z,49.15
2023-04-26T20:11:14.754Z,49.07
2023-04-26T20:13:42.746Z,49.82
2023-04-26T20:16:09.860Z,50.63
2023-04-26T20:18:37.457Z,50.87
2023-04-26T20:21:05.237Z,50.21
2023-04-26T20:23:32.302Z,50.94
2023-04-26T20:25:59.573Z,50.86
2023-04-26T20:28:27.740Z,50.94
2023-04-26T20:30:54.360Z,50.85
2023-04-26T20:33:22.592Z,50.80
2023-04-26T20:35:49.343Z,51.08
2023-04-26T20:38:16.022Z,51.10
2023-04-26T20:40:42.666Z,50.68
2023-04-26T20:43:12.026Z,51.00
2023-04-26T20:45:40.270Z,50.88
2023-04-26T20:48:08.118Z,51.33
2023-04-26T20:50:36.580Z,51.08
2023-04-26T20:53:04.286Z,51.55
2023-04-26T20:55:33.881Z,52.76
2023-04-26T20:58:00.526Z,53.30
2023-04-26T21:00:28.249Z,53.11
2023-04-26T21:02:54.986Z,53.79
2023-04-26T21:05:24.128Z,54.26
2023-04-26T21:07:50.928Z,53.67
2023-04-26T21:10:17.900Z,53.35
2023-04-26T21:12:44.589Z,53.47
2023-04-26T21:15:11.565Z,54.11
2023-04-26T21:17:40.285Z,54.12
2023-04-26T21:20:07.408Z,54.54
2023-04-26T21:22:34.012Z,55.01
2023-04-26T21:25:00.834Z,54.13
2023-04-26T21:27:27.472Z,54.57
2023-04-26T21:29:54.071Z,54.99
2023-04-26T21:32:22.621Z,53.97
2023-04-26T21:34:49.262Z,54.01
2023-04-26T21:37:16.825Z,53.83
2023-04-26T21:39:46.178Z,53.63
2023-04-26T21:42:12.855Z,53.31
2023-04-26T21:44:39.468Z,53.71
2023-04-26T21:47:06.471Z,53.32
2023-04-26T21:49:36.050Z,53.08
2023-04-26T21:52:04.560Z,53.17
2023-04-26T21:54:31.354Z,53.31
2023-04-26T21:56:57.937Z,52.92
2023-04-26T21:59:24.585Z,53.12
2023-04-26T22:01:52.629Z,54.04
2023-04-26T22:04:19.349Z,53.53
2023-04-26T22:06:46.036Z,53.63
2023-04-26T22:09:13.505Z,54.04
2023-04-26T22:11:40.276Z,53.36
2023-04-26T22:14:06.972Z,53.75
2023-04-26T22:16:33.651Z,54.44
2023-04-26T22:19:00.472Z,54.00
2023-04-26T22:21:28.441Z,54.21
2023-04-26T22:23:55.328Z,54.69
2023-04-26T22:26:21.905Z,54.26
2023-04-26T22:28:48.513Z,54.42
2023-04-26T22:31:15.200Z,54.90
2023-04-26T22:33:41.901Z,55.09
2023-04-26T22:36:08.960Z,55.28
2023-04-26T22:38:35.709Z,55.37
2023-04-26T22:41:04.662Z,56.48
2023-04-26T22:43:31.308Z,56.47
2023-04-26T22:45:57.974Z,56.27
2023-04-26T22:48:24.659Z,55.69
2023-04-26T22:50:51.265Z,56.09
2023-04-26T22:53:18.437Z,55.79
2023-04-26T22:55:45.348Z,55.60
2023-04-26T22:58:12.114Z,55.66
2023-04-26T23:00:39.339Z,56.42
2023-04-26T23:03:06.268Z,56.67
2023-04-26T23:05:35.264Z,56.09
2023-04-26T23:08:01.919Z,55.87
2023-04-26T23:10:28.627Z,57.02
2023-04-26T23:12:55.468Z,55.76
2023-04-26T23:15:22.280Z,55.59
2023-04-26T23:17:49.330Z,55.79
2023-04-26T23:20:19.187Z,55.10
2023-04-26T23:22:46.040Z,56.04
2023-04-26T23:25:12.711Z,55.61
2023-04-26T23:27:39.373Z,54.97
2023-04-26T23:30:07.205Z,54.79
2023-04-26T23:32:33.991Z,54.70
2023-04-26T23:35:00.667Z,55.39
2023-04-26T23:37:27.568Z,56.53
2023-04-26T23:39:54.158Z,56.83
2023-04-26T23:42:21.038Z,56.74
2023-04-26T23:44:47.677Z,56.25
2023-04-26T23:47:14.355Z,56.63
2023-04-26T23:49:41.152Z,57.29
2023-04-26T23:52:07.822Z,57.16
2023-04-26T23:54:34.475Z,57.74
2023-04-26T23:57:01.149Z,58.06
2023-04-26T23:59:27.888Z,58.26
